sensor_id;sensor_type;location;lat;lon;timestamp;P1;durP1;ratioP1;P2;durP2;ratioP2
13868;SDS011;7004;48.206;16.402;2022-12-18T00:01:14;10.13;;;7.20;;
13868;SDS011;7004;48.206;16.402;2022-12-18T00:03:59;10.03;;;7.53;;
13868;SDS011;7004;48.206;16.402;2022-12-18T00:06:27;11.70;;;7.87;;
13868;SDS011;7004;48.206;16.402;2022-12-18T00:08:55;11.47;;;7.10;;
13868;SDS011;7004;48.206;16.402;2022-12-18T00:11:24;10.90;;;7.17;;
13868;SDS011;7004;48.206;16.402;2022-12-18T00:13:53;9.97;;;7.47;;
13868;SDS011;7004;48.206;16.402;2022-12-18T00:16:22;11.73;;;7.00;;
13868;SDS011;7004;48.206;16.402;2022-12-18T00:18:51;10.77;;;7.17;;
13868;SDS011;7004;48.206;16.402;2022-12-18T00:21:19;12.67;;;7.57;;
13868;SDS011;7004;48.206;16.402;2022-12-18T00:23:47;10.13;;;6.73;;
13868;SDS011;7004;48.206;16.402;2022-12-18T00:26:15;12.33;;;7.77;;
13868;SDS011;7004;48.206;16.402;2022-12-18T00:28:45;9.73;;;7.37;;
13868;SDS011;7004;48.206;16.402;2022-12-18T00:31:16;11.73;;;7.10;;
13868;SDS011;7004;48.206;16.402;2022-12-18T00:33:47;10.77;;;6.77;;
13868;SDS011;7004;48.206;16.402;2022-12-18T00:36:15;11.47;;;7.20;;
13868;SDS011;7004;48.206;16.402;2022-12-18T00:38:44;12.27;;;7.83;;
13868;SDS011;7004;48.206;16.402;2022-12-18T00:41:12;12.73;;;8.00;;
13868;SDS011;7004;48.206;16.402;2022-12-18T00:44:04;12.67;;;7.83;;
13868;SDS011;7004;48.206;16.402;2022-12-18T00:46:32;10.53;;;7.50;;
13868;SDS011;7004;48.206;16.402;2022-12-18T00:48:59;11.73;;;7.73;;
13868;SDS011;7004;48.206;16.402;2022-12-18T00:51:25;12.77;;;7.60;;
13868;SDS011;7004;48.206;16.402;2022-12-18T00:53:51;13.70;;;8.57;;
13868;SDS011;7004;48.206;16.402;2022-12-18T00:56:18;12.30;;;8.10;;
13868;SDS011;7004;48.206;16.402;2022-12-18T00:58:47;12.43;;;7.43;;
13868;SDS011;7004;48.206;16.402;2022-12-18T01:01:14;13.60;;;7.40;;
13868;SDS011;7004;48.206;16.402;2022-12-18T01:03:40;12.83;;;8.27;;
13868;SDS011;7004;48.206;16.402;2022-12-18T01:06:07;14.30;;;8.40;;
13868;SDS011;7004;48.206;16.402;2022-12-18T01:08:37;17.33;;;8.33;;
13868;SDS011;7004;48.206;16.402;2022-12-18T01:11:22;13.40;;;8.77;;
13868;SDS011;7004;48.206;16.402;2022-12-18T01:13:48;13.00;;;8.70;;
13868;SDS011;7004;48.206;16.402;2022-12-18T01:16:15;16.07;;;9.50;;
13868;SDS011;7004;48.206;16.402;2022-12-18T01:18:44;15.73;;;10.03;;
13868;SDS011;7004;48.206;16.402;2022-12-18T01:21:15;18.53;;;9.80;;
13868;SDS011;7004;48.206;16.402;2022-12-18T01:23:42;20.93;;;11.23;;
13868;SDS011;7004;48.206;16.402;2022-12-18T01:26:09;20.20;;;11.67;;
13868;SDS011;7004;48.206;16.402;2022-12-18T01:28:39;18.30;;;11.10;;
13868;SDS011;7004;48.206;16.402;2022-12-18T01:31:13;17.43;;;10.63;;
13868;SDS011;7004;48.206;16.402;2022-12-18T01:33:41;18.90;;;11.93;;
13868;SDS011;7004;48.206;16.402;2022-12-18T01:36:07;16.00;;;10.93;;
13868;SDS011;7004;48.206;16.402;2022-12-18T01:38:40;21.60;;;12.70;;
13868;SDS011;7004;48.206;16.402;2022-12-18T01:41:06;20.27;;;12.50;;
13868;SDS011;7004;48.206;16.402;2022-12-18T01:43:41;21.40;;;11.97;;
13868;SDS011;7004;48.206;16.402;2022-12-18T01:46:16;21.27;;;12.73;;
13868;SDS011;7004;48.206;16.402;2022-12-18T01:48:44;21.50;;;12.27;;
13868;SDS011;7004;48.206;16.402;2022-12-18T01:51:14;23.87;;;12.20;;
13868;SDS011;7004;48.206;16.402;2022-12-18T01:53:41;20.83;;;11.97;;
13868;SDS011;7004;48.206;16.402;2022-12-18T01:56:11;20.20;;;12.60;;
13868;SDS011;7004;48.206;16.402;2022-12-18T02:01:28;22.47;;;13.60;;
13868;SDS011;7004;48.206;16.402;2022-12-18T02:07:01;22.33;;;13.73;;
13868;SDS011;7004;48.206;16.402;2022-12-18T02:09:59;23.27;;;13.20;;
13868;SDS011;7004;48.206;16.402;2022-12-18T02:13:30;26.87;;;13.70;;
13868;SDS011;7004;48.206;16.402;2022-12-18T02:18:53;25.13;;;12.40;;
13868;SDS011;7004;48.206;16.402;2022-12-18T02:26:55;24.10;;;13.13;;
13868;SDS011;7004;48.206;16.402;2022-12-18T02:29:27;22.13;;;13.27;;
13868;SDS011;7004;48.206;16.402;2022-12-18T02:32:02;24.70;;;13.93;;
13868;SDS011;7004;48.206;16.402;2022-12-18T02:34:35;27.80;;;15.00;;
13868;SDS011;7004;48.206;16.402;2022-12-18T02:37:05;24.37;;;14.10;;
13868;SDS011;7004;48.206;16.402;2022-12-18T02:39:38;27.07;;;13.50;;
13868;SDS011;7004;48.206;16.402;2022-12-18T02:42:07;25.17;;;14.37;;
13868;SDS011;7004;48.206;16.402;2022-12-18T02:44:35;26.13;;;13.97;;
13868;SDS011;7004;48.206;16.402;2022-12-18T02:47:20;23.73;;;14.10;;
13868;SDS011;7004;48.206;16.402;2022-12-18T03:01:10;26.77;;;14.10;;
13868;SDS011;7004;48.206;16.402;2022-12-18T03:04:02;21.37;;;13.50;;
13868;SDS011;7004;48.206;16.402;2022-12-18T03:06:50;24.30;;;14.33;;
13868;SDS011;7004;48.206;16.402;2022-12-18T03:09:24;21.30;;;13.10;;
13868;SDS011;7004;48.206;16.402;2022-12-18T03:12:18;28.13;;;15.03;;
13868;SDS011;7004;48.206;16.402;2022-12-18T03:17:41;24.03;;;13.73;;
13868;SDS011;7004;48.206;16.402;2022-12-18T03:20:18;25.63;;;14.63;;
13868;SDS011;7004;48.206;16.402;2022-12-18T03:22:47;23.97;;;13.13;;
13868;SDS011;7004;48.206;16.402;2022-12-18T03:25:21;26.60;;;14.43;;
13868;SDS011;7004;48.206;16.402;2022-12-18T03:27:49;25.53;;;14.47;;
13868;SDS011;7004;48.206;16.402;2022-12-18T03:30:20;23.97;;;13.63;;
13868;SDS011;7004;48.206;16.402;2022-12-18T03:32:48;23.83;;;14.17;;
13868;SDS011;7004;48.206;16.402;2022-12-18T03:35:29;26.63;;;14.73;;
13868;SDS011;7004;48.206;16.402;2022-12-18T03:37:59;25.37;;;14.03;;
13868;SDS011;7004;48.206;16.402;2022-12-18T03:40:27;25.33;;;14.13;;
13868;SDS011;7004;48.206;16.402;2022-12-18T03:43:20;26.70;;;14.87;;
13868;SDS011;7004;48.206;16.402;2022-12-18T03:46:17;29.37;;;15.30;;
13868;SDS011;7004;48.206;16.402;2022-12-18T03:50:13;26.17;;;14.40;;
13868;SDS011;7004;48.206;16.402;2022-12-18T03:52:22;27.50;;;14.60;;
13868;SDS011;7004;48.206;16.402;2022-12-18T03:54:55;26.50;;;14.80;;
13868;SDS011;7004;48.206;16.402;2022-12-18T03:57:24;27.67;;;14.67;;
13868;SDS011;7004;48.206;16.402;2022-12-18T03:59:56;27.37;;;14.63;;
13868;SDS011;7004;48.206;16.402;2022-12-18T04:02:27;26.93;;;15.47;;
13868;SDS011;7004;48.206;16.402;2022-12-18T04:04:56;24.97;;;14.73;;
13868;SDS011;7004;48.206;16.402;2022-12-18T04:07:26;26.57;;;15.23;;
13868;SDS011;7004;48.206;16.402;2022-12-18T04:09:53;24.37;;;15.50;;
13868;SDS011;7004;48.206;16.402;2022-12-18T04:12:24;27.23;;;15.47;;
13868;SDS011;7004;48.206;16.402;2022-12-18T04:14:54;26.40;;;15.50;;
13868;SDS011;7004;48.206;16.402;2022-12-18T04:17:20;27.27;;;14.87;;
13868;SDS011;7004;48.206;16.402;2022-12-18T04:19:47;27.63;;;16.17;;
13868;SDS011;7004;48.206;16.402;2022-12-18T04:22:14;26.63;;;15.43;;
13868;SDS011;7004;48.206;16.402;2022-12-18T04:24:40;24.13;;;15.33;;
13868;SDS011;7004;48.206;16.402;2022-12-18T04:27:06;27.97;;;16.13;;
13868;SDS011;7004;48.206;16.402;2022-12-18T04:29:32;29.63;;;16.23;;
13868;SDS011;7004;48.206;16.402;2022-12-18T04:31:59;26.93;;;15.37;;
13868;SDS011;7004;48.206;16.402;2022-12-18T04:34:25;28.87;;;16.27;;
13868;SDS011;7004;48.206;16.402;2022-12-18T04:36:51;24.93;;;14.23;;
13868;SDS011;7004;48.206;16.402;2022-12-18T04:39:17;27.23;;;15.77;;
13868;SDS011;7004;48.206;16.402;2022-12-18T04:41:43;31.60;;;17.10;;
13868;SDS011;7004;48.206;16.402;2022-12-18T04:44:09;31.40;;;16.67;;
13868;SDS011;7004;48.206;16.402;2022-12-18T04:46:35;26.67;;;16.63;;
13868;SDS011;7004;48.206;16.402;2022-12-18T04:49:01;26.03;;;15.97;;
13868;SDS011;7004;48.206;16.402;2022-12-18T04:51:27;29.40;;;16.17;;
13868;SDS011;7004;48.206;16.402;2022-12-18T04:53:53;29.20;;;16.20;;
13868;SDS011;7004;48.206;16.402;2022-12-18T04:56:20;26.57;;;15.10;;
13868;SDS011;7004;48.206;16.402;2022-12-18T04:58:46;29.30;;;16.07;;
13868;SDS011;7004;48.206;16.402;2022-12-18T05:01:13;27.27;;;15.47;;
13868;SDS011;7004;48.206;16.402;2022-12-18T05:03:42;30.17;;;15.87;;
13868;SDS011;7004;48.206;16.402;2022-12-18T05:06:08;29.43;;;16.77;;
13868;SDS011;7004;48.206;16.402;2022-12-18T05:08:35;28.83;;;15.77;;
13868;SDS011;7004;48.206;16.402;2022-12-18T05:11:08;28.47;;;15.97;;
13868;SDS011;7004;48.206;16.402;2022-12-18T05:13:44;30.37;;;16.53;;
13868;SDS011;7004;48.206;16.402;2022-12-18T05:16:12;27.30;;;16.30;;
13868;SDS011;7004;48.206;16.402;2022-12-18T05:18:38;28.90;;;16.43;;
13868;SDS011;7004;48.206;16.402;2022-12-18T05:21:04;28.30;;;16.17;;
13868;SDS011;7004;48.206;16.402;2022-12-18T05:23:31;29.53;;;16.13;;
13868;SDS011;7004;48.206;16.402;2022-12-18T05:26:01;29.80;;;17.43;;
13868;SDS011;7004;48.206;16.402;2022-12-18T05:28:30;25.20;;;15.83;;
13868;SDS011;7004;48.206;16.402;2022-12-18T05:30:59;28.60;;;16.07;;
13868;SDS011;7004;48.206;16.402;2022-12-18T05:33:29;31.37;;;17.43;;
13868;SDS011;7004;48.206;16.402;2022-12-18T05:35:59;30.20;;;17.33;;
13868;SDS011;7004;48.206;16.402;2022-12-18T05:38:28;32.30;;;16.03;;
13868;SDS011;7004;48.206;16.402;2022-12-18T05:40:56;30.63;;;16.87;;
13868;SDS011;7004;48.206;16.402;2022-12-18T05:43:23;31.20;;;16.33;;
13868;SDS011;7004;48.206;16.402;2022-12-18T05:45:51;28.60;;;15.80;;
13868;SDS011;7004;48.206;16.402;2022-12-18T05:48:19;30.00;;;15.17;;
13868;SDS011;7004;48.206;16.402;2022-12-18T05:50:46;32.27;;;17.57;;
13868;SDS011;7004;48.206;16.402;2022-12-18T05:53:15;29.23;;;16.27;;
13868;SDS011;7004;48.206;16.402;2022-12-18T05:55:45;33.43;;;16.97;;
13868;SDS011;7004;48.206;16.402;2022-12-18T05:58:12;30.23;;;16.27;;
13868;SDS011;7004;48.206;16.402;2022-12-18T06:00:42;31.47;;;16.97;;
13868;SDS011;7004;48.206;16.402;2022-12-18T06:03:11;31.73;;;17.07;;
13868;SDS011;7004;48.206;16.402;2022-12-18T06:05:39;37.87;;;18.77;;
13868;SDS011;7004;48.206;16.402;2022-12-18T06:08:08;31.23;;;17.90;;
13868;SDS011;7004;48.206;16.402;2022-12-18T06:10:35;32.40;;;17.43;;
13868;SDS011;7004;48.206;16.402;2022-12-18T06:13:02;31.33;;;17.63;;
13868;SDS011;7004;48.206;16.402;2022-12-18T06:15:30;34.47;;;17.10;;
13868;SDS011;7004;48.206;16.402;2022-12-18T06:17:57;32.03;;;16.80;;
13868;SDS011;7004;48.206;16.402;2022-12-18T06:20:23;30.00;;;16.93;;
13868;SDS011;7004;48.206;16.402;2022-12-18T06:22:49;32.43;;;16.93;;
13868;SDS011;7004;48.206;16.402;2022-12-18T06:25:15;33.80;;;18.33;;
13868;SDS011;7004;48.206;16.402;2022-12-18T06:27:41;33.90;;;17.30;;
13868;SDS011;7004;48.206;16.402;2022-12-18T06:30:08;32.30;;;16.93;;
13868;SDS011;7004;48.206;16.402;2022-12-18T06:32:36;32.13;;;17.57;;
13868;SDS011;7004;48.206;16.402;2022-12-18T06:35:02;30.83;;;17.53;;
13868;SDS011;7004;48.206;16.402;2022-12-18T06:37:30;35.77;;;19.63;;
13868;SDS011;7004;48.206;16.402;2022-12-18T06:39:56;34.97;;;17.90;;
13868;SDS011;7004;48.206;16.402;2022-12-18T06:42:24;31.67;;;17.57;;
13868;SDS011;7004;48.206;16.402;2022-12-18T06:44:50;33.83;;;18.10;;
13868;SDS011;7004;48.206;16.402;2022-12-18T06:47:16;37.70;;;18.77;;
13868;SDS011;7004;48.206;16.402;2022-12-18T06:49:43;31.33;;;17.77;;
13868;SDS011;7004;48.206;16.402;2022-12-18T06:52:09;36.00;;;18.37;;
13868;SDS011;7004;48.206;16.402;2022-12-18T06:54:35;34.10;;;18.97;;
13868;SDS011;7004;48.206;16.402;2022-12-18T06:57:01;34.33;;;18.17;;
13868;SDS011;7004;48.206;16.402;2022-12-18T06:59:28;35.93;;;19.03;;
13868;SDS011;7004;48.206;16.402;2022-12-18T07:01:54;35.13;;;18.47;;
13868;SDS011;7004;48.206;16.402;2022-12-18T07:04:20;34.20;;;19.27;;
13868;SDS011;7004;48.206;16.402;2022-12-18T07:06:46;36.90;;;19.90;;
13868;SDS011;7004;48.206;16.402;2022-12-18T07:09:12;35.67;;;18.90;;
13868;SDS011;7004;48.206;16.402;2022-12-18T07:11:38;36.50;;;18.00;;
13868;SDS011;7004;48.206;16.402;2022-12-18T07:14:04;34.73;;;18.37;;
13868;SDS011;7004;48.206;16.402;2022-12-18T07:16:30;36.30;;;19.83;;
13868;SDS011;7004;48.206;16.402;2022-12-18T07:18:56;33.47;;;18.37;;
13868;SDS011;7004;48.206;16.402;2022-12-18T07:21:23;38.53;;;19.43;;
13868;SDS011;7004;48.206;16.402;2022-12-18T07:23:50;38.53;;;19.43;;
13868;SDS011;7004;48.206;16.402;2022-12-18T07:26:18;36.53;;;20.03;;
13868;SDS011;7004;48.206;16.402;2022-12-18T07:28:45;34.50;;;19.00;;
13868;SDS011;7004;48.206;16.402;2022-12-18T07:31:13;40.30;;;20.10;;
13868;SDS011;7004;48.206;16.402;2022-12-18T07:33:45;38.83;;;19.60;;
13868;SDS011;7004;48.206;16.402;2022-12-18T07:36:11;36.23;;;19.20;;
13868;SDS011;7004;48.206;16.402;2022-12-18T07:38:38;30.57;;;18.97;;
13868;SDS011;7004;48.206;16.402;2022-12-18T07:41:10;33.87;;;19.17;;
13868;SDS011;7004;48.206;16.402;2022-12-18T07:43:38;34.13;;;18.77;;
13868;SDS011;7004;48.206;16.402;2022-12-18T07:46:06;34.27;;;19.50;;
13868;SDS011;7004;48.206;16.402;2022-12-18T07:48:33;32.93;;;19.47;;
13868;SDS011;7004;48.206;16.402;2022-12-18T07:51:04;34.60;;;20.33;;
13868;SDS011;7004;48.206;16.402;2022-12-18T07:53:32;34.83;;;20.20;;
13868;SDS011;7004;48.206;16.402;2022-12-18T07:56:05;35.13;;;19.80;;
13868;SDS011;7004;48.206;16.402;2022-12-18T07:58:35;37.13;;;19.87;;
13868;SDS011;7004;48.206;16.402;2022-12-18T08:01:06;34.83;;;18.53;;
13868;SDS011;7004;48.206;16.402;2022-12-18T08:03:36;36.43;;;19.07;;
13868;SDS011;7004;48.206;16.402;2022-12-18T08:06:05;35.63;;;19.43;;
13868;SDS011;7004;48.206;16.402;2022-12-18T08:08:34;34.77;;;18.50;;
13868;SDS011;7004;48.206;16.402;2022-12-18T08:11:00;32.93;;;18.87;;
13868;SDS011;7004;48.206;16.402;2022-12-18T08:13:28;36.37;;;18.67;;
13868;SDS011;7004;48.206;16.402;2022-12-18T08:15:55;34.03;;;18.30;;
13868;SDS011;7004;48.206;16.402;2022-12-18T08:18:29;38.37;;;19.70;;
13868;SDS011;7004;48.206;16.402;2022-12-18T08:20:57;31.57;;;19.27;;
13868;SDS011;7004;48.206;16.402;2022-12-18T08:23:42;37.27;;;19.27;;
13868;SDS011;7004;48.206;16.402;2022-12-18T08:26:09;30.10;;;18.03;;
13868;SDS011;7004;48.206;16.402;2022-12-18T08:28:37;34.40;;;19.30;;
13868;SDS011;7004;48.206;16.402;2022-12-18T08:31:03;38.97;;;22.97;;
13868;SDS011;7004;48.206;16.402;2022-12-18T08:33:30;35.80;;;21.03;;
13868;SDS011;7004;48.206;16.402;2022-12-18T08:35:57;37.27;;;20.87;;
13868;SDS011;7004;48.206;16.402;2022-12-18T08:38:24;35.37;;;20.03;;
13868;SDS011;7004;48.206;16.402;2022-12-18T08:40:58;34.63;;;20.10;;
13868;SDS011;7004;48.206;16.402;2022-12-18T08:43:32;40.87;;;20.33;;
13868;SDS011;7004;48.206;16.402;2022-12-18T08:46:20;38.40;;;21.50;;
13868;SDS011;7004;48.206;16.402;2022-12-18T08:48:53;41.70;;;21.97;;
13868;SDS011;7004;48.206;16.402;2022-12-18T08:51:21;39.30;;;21.53;;
13868;SDS011;7004;48.206;16.402;2022-12-18T08:53:47;40.03;;;21.43;;
13868;SDS011;7004;48.206;16.402;2022-12-18T08:56:14;41.97;;;22.47;;
13868;SDS011;7004;48.206;16.402;2022-12-18T08:58:41;41.00;;;22.53;;
13868;SDS011;7004;48.206;16.402;2022-12-18T09:01:08;37.93;;;21.43;;
13868;SDS011;7004;48.206;16.402;2022-12-18T09:03:37;40.57;;;22.27;;
13868;SDS011;7004;48.206;16.402;2022-12-18T09:06:04;45.80;;;23.10;;
13868;SDS011;7004;48.206;16.402;2022-12-18T09:08:31;43.50;;;22.63;;
13868;SDS011;7004;48.206;16.402;2022-12-18T09:10:57;43.40;;;24.00;;
13868;SDS011;7004;48.206;16.402;2022-12-18T09:13:23;43.20;;;22.97;;
13868;SDS011;7004;48.206;16.402;2022-12-18T09:15:52;43.57;;;23.53;;
13868;SDS011;7004;48.206;16.402;2022-12-18T09:18:20;45.60;;;24.33;;
13868;SDS011;7004;48.206;16.402;2022-12-18T09:20:50;39.23;;;22.17;;
13868;SDS011;7004;48.206;16.402;2022-12-18T09:23:18;37.60;;;22.60;;
13868;SDS011;7004;48.206;16.402;2022-12-18T09:25:44;39.77;;;21.97;;
13868;SDS011;7004;48.206;16.402;2022-12-18T09:28:12;37.07;;;21.27;;
13868;SDS011;7004;48.206;16.402;2022-12-18T09:30:41;33.87;;;19.43;;
13868;SDS011;7004;48.206;16.402;2022-12-18T09:33:11;35.97;;;20.30;;
13868;SDS011;7004;48.206;16.402;2022-12-18T09:35:38;37.23;;;20.67;;
13868;SDS011;7004;48.206;16.402;2022-12-18T09:38:04;36.47;;;20.77;;
13868;SDS011;7004;48.206;16.402;2022-12-18T09:40:53;41.07;;;21.57;;
13868;SDS011;7004;48.206;16.402;2022-12-18T09:43:30;41.73;;;21.27;;
13868;SDS011;7004;48.206;16.402;2022-12-18T09:46:16;40.67;;;21.13;;
13868;SDS011;7004;48.206;16.402;2022-12-18T09:48:51;39.37;;;22.03;;
13868;SDS011;7004;48.206;16.402;2022-12-18T09:51:26;40.17;;;20.97;;
13868;SDS011;7004;48.206;16.402;2022-12-18T09:54:05;39.87;;;21.37;;
13868;SDS011;7004;48.206;16.402;2022-12-18T09:56:40;38.63;;;20.57;;
13868;SDS011;7004;48.206;16.402;2022-12-18T09:59:20;42.43;;;21.00;;
13868;SDS011;7004;48.206;16.402;2022-12-18T10:01:55;39.17;;;21.77;;
13868;SDS011;7004;48.206;16.402;2022-12-18T10:04:21;40.03;;;21.67;;
13868;SDS011;7004;48.206;16.402;2022-12-18T10:06:52;42.10;;;20.90;;
13868;SDS011;7004;48.206;16.402;2022-12-18T10:09:59;39.63;;;21.20;;
13868;SDS011;7004;48.206;16.402;2022-12-18T10:12:49;36.63;;;20.23;;
13868;SDS011;7004;48.206;16.402;2022-12-18T10:24:39;37.53;;;19.33;;
13868;SDS011;7004;48.206;16.402;2022-12-18T10:27:24;37.70;;;19.97;;
13868;SDS011;7004;48.206;16.402;2022-12-18T10:29:52;39.43;;;20.20;;
13868;SDS011;7004;48.206;16.402;2022-12-18T10:32:20;36.53;;;19.37;;
13868;SDS011;7004;48.206;16.402;2022-12-18T10:34:51;37.07;;;19.67;;
13868;SDS011;7004;48.206;16.402;2022-12-18T10:37:20;41.13;;;20.50;;
13868;SDS011;7004;48.206;16.402;2022-12-18T10:42:41;36.50;;;19.07;;
13868;SDS011;7004;48.206;16.402;2022-12-18T10:45:13;41.63;;;21.03;;
13868;SDS011;7004;48.206;16.402;2022-12-18T10:47:47;38.03;;;19.90;;
13868;SDS011;7004;48.206;16.402;2022-12-18T10:50:48;36.67;;;19.00;;
13868;SDS011;7004;48.206;16.402;2022-12-18T10:53:13;39.17;;;19.30;;
13868;SDS011;7004;48.206;16.402;2022-12-18T10:55:47;40.07;;;20.93;;
13868;SDS011;7004;48.206;16.402;2022-12-18T11:06:23;40.53;;;20.43;;
13868;SDS011;7004;48.206;16.402;2022-12-18T11:09:09;43.27;;;21.17;;
13868;SDS011;7004;48.206;16.402;2022-12-18T11:12:14;49.07;;;20.40;;
13868;SDS011;7004;48.206;16.402;2022-12-18T11:14:48;37.10;;;19.67;;
13868;SDS011;7004;48.206;16.402;2022-12-18T11:19:54;41.83;;;21.10;;
13868;SDS011;7004;48.206;16.402;2022-12-18T11:22:33;42.10;;;21.77;;
13868;SDS011;7004;48.206;16.402;2022-12-18T11:27:46;38.03;;;20.30;;
13868;SDS011;7004;48.206;16.402;2022-12-18T11:30:26;38.40;;;20.33;;
13868;SDS011;7004;48.206;16.402;2022-12-18T11:35:38;39.53;;;21.17;;
13868;SDS011;7004;48.206;16.402;2022-12-18T11:38:25;42.57;;;19.83;;
13868;SDS011;7004;48.206;16.402;2022-12-18T11:41:05;41.00;;;20.40;;
13868;SDS011;7004;48.206;16.402;2022-12-18T11:44:11;44.40;;;20.83;;
13868;SDS011;7004;48.206;16.402;2022-12-18T11:46:52;40.80;;;21.43;;
13868;SDS011;7004;48.206;16.402;2022-12-18T11:49:29;37.57;;;20.87;;
13868;SDS011;7004;48.206;16.402;2022-12-18T11:52:11;41.83;;;21.80;;
13868;SDS011;7004;48.206;16.402;2022-12-18T11:54:57;38.57;;;20.23;;
13868;SDS011;7004;48.206;16.402;2022-12-18T11:57:34;40.30;;;21.03;;
13868;SDS011;7004;48.206;16.402;2022-12-18T12:00:17;37.83;;;20.00;;
13868;SDS011;7004;48.206;16.402;2022-12-18T12:02:56;36.93;;;21.67;;
13868;SDS011;7004;48.206;16.402;2022-12-18T12:05:57;36.53;;;20.03;;
13868;SDS011;7004;48.206;16.402;2022-12-18T12:15:36;40.43;;;20.47;;
13868;SDS011;7004;48.206;16.402;2022-12-18T12:21:41;39.00;;;20.80;;
13868;SDS011;7004;48.206;16.402;2022-12-18T12:29:46;41.20;;;21.40;;
13868;SDS011;7004;48.206;16.402;2022-12-18T12:38:41;39.80;;;20.67;;
13868;SDS011;7004;48.206;16.402;2022-12-18T12:41:17;43.07;;;20.87;;
13868;SDS011;7004;48.206;16.402;2022-12-18T12:44:08;38.83;;;20.00;;
13868;SDS011;7004;48.206;16.402;2022-12-18T12:46:41;40.63;;;22.07;;
13868;SDS011;7004;48.206;16.402;2022-12-18T12:49:15;42.13;;;21.47;;
13868;SDS011;7004;48.206;16.402;2022-12-18T12:51:47;43.80;;;23.03;;
13868;SDS011;7004;48.206;16.402;2022-12-18T12:54:27;46.07;;;22.20;;
13868;SDS011;7004;48.206;16.402;2022-12-18T12:57:00;38.03;;;20.80;;
13868;SDS011;7004;48.206;16.402;2022-12-18T13:08:21;40.23;;;22.83;;
13868;SDS011;7004;48.206;16.402;2022-12-18T13:10:53;42.73;;;23.17;;
13868;SDS011;7004;48.206;16.402;2022-12-18T13:13:51;40.13;;;21.13;;
13868;SDS011;7004;48.206;16.402;2022-12-18T13:16:20;42.03;;;21.87;;
13868;SDS011;7004;48.206;16.402;2022-12-18T13:18:53;43.03;;;21.67;;
13868;SDS011;7004;48.206;16.402;2022-12-18T13:21:24;41.40;;;20.80;;
13868;SDS011;7004;48.206;16.402;2022-12-18T13:23:52;42.23;;;20.93;;
13868;SDS011;7004;48.206;16.402;2022-12-18T13:36:50;41.30;;;22.17;;
13868;SDS011;7004;48.206;16.402;2022-12-18T13:41:47;42.83;;;22.33;;
13868;SDS011;7004;48.206;16.402;2022-12-18T13:49:56;43.70;;;23.07;;
13868;SDS011;7004;48.206;16.402;2022-12-18T13:52:42;49.83;;;24.50;;
13868;SDS011;7004;48.206;16.402;2022-12-18T13:55:16;49.70;;;24.87;;
13868;SDS011;7004;48.206;16.402;2022-12-18T13:57:45;45.27;;;23.27;;
13868;SDS011;7004;48.206;16.402;2022-12-18T14:00:27;44.93;;;24.20;;
13868;SDS011;7004;48.206;16.402;2022-12-18T14:02:55;52.53;;;24.87;;
13868;SDS011;7004;48.206;16.402;2022-12-18T14:05:29;49.90;;;24.87;;
13868;SDS011;7004;48.206;16.402;2022-12-18T14:08:05;50.80;;;24.53;;
13868;SDS011;7004;48.206;16.402;2022-12-18T14:10:39;50.20;;;24.53;;
13868;SDS011;7004;48.206;16.402;2022-12-18T14:13:08;55.63;;;25.47;;
13868;SDS011;7004;48.206;16.402;2022-12-18T14:15:41;53.70;;;25.50;;
13868;SDS011;7004;48.206;16.402;2022-12-18T14:21:04;54.87;;;26.13;;
13868;SDS011;7004;48.206;16.402;2022-12-18T14:23:38;57.93;;;27.53;;
13868;SDS011;7004;48.206;16.402;2022-12-18T14:28:52;54.20;;;27.13;;
13868;SDS011;7004;48.206;16.402;2022-12-18T14:31:23;49.03;;;26.43;;
13868;SDS011;7004;48.206;16.402;2022-12-18T14:33:52;55.47;;;27.27;;
13868;SDS011;7004;48.206;16.402;2022-12-18T14:36:20;53.90;;;26.80;;
13868;SDS011;7004;48.206;16.402;2022-12-18T14:38:50;58.93;;;27.17;;
13868;SDS011;7004;48.206;16.402;2022-12-18T14:41:22;58.27;;;26.80;;
13868;SDS011;7004;48.206;16.402;2022-12-18T14:43:50;55.57;;;25.57;;
13868;SDS011;7004;48.206;16.402;2022-12-18T14:46:30;50.00;;;25.40;;
13868;SDS011;7004;48.206;16.402;2022-12-18T14:49:14;52.03;;;26.97;;
13868;SDS011;7004;48.206;16.402;2022-12-18T14:54:45;61.80;;;28.13;;
13868;SDS011;7004;48.206;16.402;2022-12-18T14:57:23;64.60;;;29.77;;
13868;SDS011;7004;48.206;16.402;2022-12-18T14:59:55;60.60;;;28.70;;
13868;SDS011;7004;48.206;16.402;2022-12-18T15:02:41;60.63;;;28.80;;
13868;SDS011;7004;48.206;16.402;2022-12-18T15:07:48;60.13;;;28.50;;
13868;SDS011;7004;48.206;16.402;2022-12-18T15:10:21;65.80;;;30.13;;
13868;SDS011;7004;48.206;16.402;2022-12-18T15:17:59;56.57;;;26.83;;
13868;SDS011;7004;48.206;16.402;2022-12-18T15:20:32;61.70;;;28.00;;
13868;SDS011;7004;48.206;16.402;2022-12-18T15:26:04;59.20;;;26.80;;
13868;SDS011;7004;48.206;16.402;2022-12-18T15:31:24;53.20;;;25.60;;
13868;SDS011;7004;48.206;16.402;2022-12-18T15:34:14;60.70;;;27.03;;
13868;SDS011;7004;48.206;16.402;2022-12-18T15:36:47;54.47;;;26.53;;
13868;SDS011;7004;48.206;16.402;2022-12-18T15:39:16;58.63;;;27.07;;
13868;SDS011;7004;48.206;16.402;2022-12-18T15:41:42;58.77;;;27.83;;
13868;SDS011;7004;48.206;16.402;2022-12-18T15:44:30;61.73;;;27.03;;
13868;SDS011;7004;48.206;16.402;2022-12-18T15:46:57;52.30;;;26.13;;
13868;SDS011;7004;48.206;16.402;2022-12-18T15:49:24;50.90;;;26.73;;
13868;SDS011;7004;48.206;16.402;2022-12-18T15:51:52;53.70;;;27.20;;
13868;SDS011;7004;48.206;16.402;2022-12-18T15:54:23;52.30;;;26.63;;
13868;SDS011;7004;48.206;16.402;2022-12-18T15:57:09;53.33;;;26.03;;
13868;SDS011;7004;48.206;16.402;2022-12-18T15:59:51;51.97;;;26.40;;
13868;SDS011;7004;48.206;16.402;2022-12-18T16:02:21;55.70;;;27.77;;
13868;SDS011;7004;48.206;16.402;2022-12-18T16:04:50;56.87;;;27.50;;
13868;SDS011;7004;48.206;16.402;2022-12-18T16:07:18;54.53;;;27.63;;
13868;SDS011;7004;48.206;16.402;2022-12-18T16:09:47;59.60;;;27.87;;
13868;SDS011;7004;48.206;16.402;2022-12-18T16:12:17;54.40;;;26.97;;
13868;SDS011;7004;48.206;16.402;2022-12-18T16:14:50;52.60;;;27.07;;
13868;SDS011;7004;48.206;16.402;2022-12-18T16:17:17;52.77;;;25.87;;
13868;SDS011;7004;48.206;16.402;2022-12-18T16:19:45;54.37;;;25.97;;
13868;SDS011;7004;48.206;16.402;2022-12-18T16:22:19;58.50;;;27.53;;
13868;SDS011;7004;48.206;16.402;2022-12-18T16:24:49;56.00;;;27.27;;
13868;SDS011;7004;48.206;16.402;2022-12-18T16:27:17;51.90;;;24.80;;
13868;SDS011;7004;48.206;16.402;2022-12-18T16:29:44;54.63;;;24.07;;
13868;SDS011;7004;48.206;16.402;2022-12-18T16:32:13;43.33;;;22.37;;
13868;SDS011;7004;48.206;16.402;2022-12-18T16:34:43;46.07;;;24.03;;
13868;SDS011;7004;48.206;16.402;2022-12-18T16:37:12;49.13;;;25.07;;
13868;SDS011;7004;48.206;16.402;2022-12-18T16:39:41;48.97;;;24.97;;
13868;SDS011;7004;48.206;16.402;2022-12-18T16:42:15;55.17;;;26.20;;
13868;SDS011;7004;48.206;16.402;2022-12-18T16:44:44;49.17;;;24.90;;
13868;SDS011;7004;48.206;16.402;2022-12-18T16:47:13;52.80;;;26.07;;
13868;SDS011;7004;48.206;16.402;2022-12-18T16:49:40;51.13;;;26.23;;
13868;SDS011;7004;48.206;16.402;2022-12-18T16:52:09;49.17;;;24.83;;
13868;SDS011;7004;48.206;16.402;2022-12-18T16:54:36;48.40;;;24.23;;
13868;SDS011;7004;48.206;16.402;2022-12-18T16:57:03;50.17;;;25.60;;
13868;SDS011;7004;48.206;16.402;2022-12-18T16:59:30;48.37;;;24.80;;